Flight Track Log - Related Links

Times and Time Zones

All times are in EST time to prevent confusion due to time zone crossing. See the CXA8275 flight status page for this flight to view local times or setup timezone preferences in your user account.

Time Position Orientation Groundspeed Altitude Reporting Facility
EST Latitude Longitude Course Direction KTS MPH feet Rate Location/Type
Mon 10:44:00 PM 31.4289 113.2839 309° West  Level Estimated
Mon 10:45:00 PM 31.4930 113.1908 309° West  Level Estimated
Mon 10:46:00 PM 31.5571 113.0975 309° West  Level Estimated
Mon 10:47:00 PM 31.6211 113.0041 309° West  Level Estimated
Mon 10:48:00 PM 31.6850 112.9106 309° West  Level Estimated
Mon 10:49:00 PM 31.7489 112.8170 309° West  Level Estimated
Mon 10:50:00 PM 31.8127 112.7233 309° West  Level Estimated
Mon 10:51:00 PM 31.8765 112.6294 309° West  Level Estimated
Mon 10:52:00 PM 31.9401 112.5353 309° West  Level Estimated
Mon 10:53:00 PM 32.0037 112.4412 309° West  Level Estimated
Mon 10:54:00 PM 32.0673 112.3469 309° West  Level Estimated
Mon 10:55:00 PM 32.1307 112.2525 308° West  Level Estimated
Mon 10:56:00 PM 32.1941 112.1580 308° West  Level Estimated
Mon 10:57:00 PM 32.2574 112.0633 308° West  Level Estimated
Mon 10:58:00 PM 32.3207 111.9685 308° West  Level Estimated
Mon 10:59:00 PM 32.3839 111.8735 308° West  Level Estimated
Mon 11:00:00 PM 32.4470 111.7785 308° West  Level Estimated
Mon 11:01:00 PM 32.5100 111.6833 308° West  Level Estimated
Mon 11:02:00 PM 32.5730 111.5879 308° West  Level Estimated
Mon 11:03:00 PM 32.6359 111.4925 308° West  Level Estimated
Mon 11:04:00 PM 32.6987 111.3969 308° West  Level Estimated
Mon 11:05:00 PM 32.7614 111.3011 308° West  Level Estimated
Mon 11:06:00 PM 32.8241 111.2052 308° West  Level Estimated
Mon 11:07:00 PM 32.8867 111.1092 308° West  Level Estimated
Mon 11:08:00 PM 32.9492 111.0131 308° West  Level Estimated
Mon 11:09:00 PM 33.0117 110.9168 308° West  Level Estimated
Mon 11:10:00 PM 33.0741 110.8204 308° West  Level Estimated
Mon 11:11:00 PM 33.1364 110.7238 308° West  Level Estimated
Mon 11:12:00 PM 33.1986 110.6271 308° West  Level Estimated
Mon 11:13:00 PM 33.2607 110.5303 308° West  Level Estimated
Mon 11:14:00 PM 33.3228 110.4333 307° West  Level Estimated
Mon 11:15:00 PM 33.3848 110.3362 307° West  Level Estimated
Mon 11:16:00 PM 33.4468 110.2390 307° West  Level Estimated
Mon 11:17:00 PM 33.5086 110.1416 307° West  Level Estimated
Mon 11:18:00 PM 33.5704 110.0441 307° West  Level Estimated
Mon 11:19:00 PM 33.6321 109.9464 307° West  Level Estimated
Mon 11:20:00 PM 33.6937 109.8486 307° West  Level Estimated
Mon 11:21:00 PM 33.7552 109.7507 307° West  Level Estimated
Mon 11:22:00 PM 33.8167 109.6526 307° West  Level Estimated
Mon 11:23:00 PM 33.8781 109.5544 307° West  Level Estimated
Mon 11:24:00 PM 33.9394 109.4560 307° West  Level Estimated
Mon 11:25:00 PM 34.0006 109.3575 307° West  Level Estimated
Mon 11:26:00 PM 34.0618 109.2588 307° West  Level Estimated
Mon 11:27:00 PM 34.1229 109.1600 307° West  Level Estimated
Mon 11:28:00 PM 34.1839 109.0611 307° West  Level Estimated
Mon 11:29:00 PM 34.2448 108.9620 307° West  Level Estimated
Mon 11:30:00 PM 34.3056 108.8628 307° West  Level Estimated
Mon 11:31:00 PM 34.3664 108.7634 307° West  Level Estimated
Mon 11:32:00 PM 34.4271 108.6639 306° West  Level Estimated
Mon 11:33:00 PM 34.4877 108.5643 306° West  Level Estimated
Mon 11:34:00 PM 34.5482 108.4645 306° West  Level Estimated
Mon 11:35:00 PM 34.6086 108.3645 306° West  Level Estimated
Mon 11:36:00 PM 34.6690 108.2645 306° West  Level Estimated
Mon 11:37:00 PM 34.7292 108.1642 306° West  Level Estimated
Mon 11:38:00 PM 34.7894 108.0638 306° West  Level Estimated
Mon 11:39:00 PM 34.8495 107.9633 306° West  Level Estimated
Mon 11:40:00 PM 34.9095 107.8626 306° West  Level Estimated
Mon 11:41:00 PM 34.9695 107.7618 306° West  Level Estimated
Mon 11:42:00 PM 35.0294 107.6609 306° West  Level Estimated
Mon 11:43:00 PM 35.0891 107.5597 306° West  Level Estimated
Mon 11:44:00 PM 35.1488 107.4585 306° West  Level Estimated
Mon 11:45:00 PM 35.2084 107.3570 306° West  Level Estimated
Mon 11:46:00 PM 35.2679 107.2555 306° West  Level Estimated
Mon 11:47:00 PM 35.3274 107.1538 306° West  Level Estimated
Mon 11:48:00 PM 35.3867 107.0519 306° West  Level Estimated
Mon 11:49:00 PM 35.4460 106.9499 306° West  Level Estimated
Mon 11:50:00 PM 35.5051 106.8477 305° West  Level Estimated
Mon 11:51:00 PM 35.5642 106.7454 305° West  Level Estimated
Mon 11:52:00 PM 35.6232 106.6430 305° West  Level Estimated
Mon 11:53:00 PM 35.6822 106.5404 305° West  Level Estimated
Mon 11:54:00 PM 35.7410 106.4376 305° West  Level Estimated
Mon 11:55:00 PM 35.7997 106.3347 305° West  Level Estimated
Mon 11:56:00 PM 35.8584 106.2316 305° West  Level Estimated
Mon 11:57:00 PM 35.9170 106.1284 305° West  Level Estimated
Mon 11:58:00 PM 35.9754 106.0250 305° West  Level Estimated
Mon 11:59:00 PM 36.0338 105.9215 305° West  Level Estimated
Tue 12:00:00 AM 36.0921 105.8178 305° West  Level Estimated
Tue 12:01:00 AM 36.1503 105.7140 305° West  Level Estimated
Tue 12:02:00 AM 36.2085 105.6100 305° West  Level Estimated
Tue 12:03:00 AM 36.2665 105.5058 305° West  Level Estimated
Tue 12:04:00 AM 36.3244 105.4015 305° West  Level Estimated
Tue 12:05:00 AM 36.3823 105.2971 305° West  Level Estimated
Tue 12:06:00 AM 36.4400 105.1925 304° West  Level Estimated
Tue 12:07:00 AM 36.4977 105.0877 304° West  Level Estimated
Tue 12:08:00 AM 36.5553 104.9828 304° West  Level Estimated
Tue 12:09:00 AM 36.6128 104.8777 304° West  Level Estimated
Tue 12:10:00 AM 36.6702 104.7725 304° West  Level Estimated
Tue 12:11:00 AM 36.7275 104.6671 304° West  Level Estimated
Tue 12:12:00 AM 36.7847 104.5615 304° West  Level Estimated
Tue 12:13:00 AM 36.8418 104.4558 304° West  Level Estimated
Tue 12:14:00 AM 36.8988 104.3500 304° West  Level Estimated
Tue 12:15:00 AM 36.9557 104.2439 304° West  Level Estimated
Tue 12:16:00 AM 37.0125 104.1378 304° West  Level Estimated
Tue 12:17:00 AM 37.0693 104.0314 304° West  Level Estimated
Tue 12:18:00 AM 37.1259 103.9249 304° West  Level Estimated
Tue 12:19:00 AM 37.1825 103.8183 304° West  Level Estimated
Tue 12:20:00 AM 37.2389 103.7114 304° West  Level Estimated
Tue 12:21:00 AM 37.2953 103.6045 304° West  Level Estimated
Tue 12:22:00 AM 37.3515 103.4973 303° West  Level Estimated
Tue 12:23:00 AM 37.4077 103.3900 303° West  Level Estimated
Tue 12:24:00 AM 37.4637 103.2826 303° West  Level Estimated
Tue 12:25:00 AM 37.5197 103.1749 303° West  Level Estimated
Tue 12:26:00 AM 37.5756 103.0672 303° West  Level Estimated
Tue 12:27:00 AM 37.6314 102.9592 303° West  Level Estimated
Tue 12:28:00 AM 37.6870 102.8511 303° West  Level Estimated
Tue 12:29:00 AM 37.7426 102.7428 303° West  Level Estimated
Tue 12:30:00 AM 37.7981 102.6344 303° West  Level Estimated
Tue 12:31:00 AM 37.8534 102.5258 303° West  Level Estimated
Tue 12:32:00 AM 37.9087 102.4171 303° West  Level Estimated
Tue 12:33:00 AM 37.9639 102.3081 303° West  Level Estimated
Tue 12:34:00 AM 38.0189 102.1991 303° West  Level Estimated
Tue 12:35:00 AM 38.0739 102.0898 303° West  Level Estimated
Tue 12:36:00 AM 38.1288 101.9804 303° West  Level Estimated
Tue 12:37:00 AM 38.1836 101.8708 302° West  Level Estimated
Tue 12:38:00 AM 38.2382 101.7611 302° West  Level Estimated
Tue 12:39:00 AM 38.2928 101.6512 302° West  Level Estimated
Tue 12:40:00 AM 38.3472 101.5411 302° West  Level Estimated
Tue 12:41:00 AM 38.4016 101.4309 302° West  Level Estimated
Tue 12:42:00 AM 38.4559 101.3205 302° West  Level Estimated
Tue 12:43:00 AM 38.5100 101.2099 302° West  Level Estimated
Tue 12:44:00 AM 38.5641 101.0992 302° West  Level Estimated
Tue 12:45:00 AM 38.6180 100.9883 302° West  Level Estimated
Tue 12:46:00 AM 38.6718 100.8772 302° West  Level Estimated
Tue 12:47:00 AM 38.7256 100.7660 302° West  Level Estimated
Tue 12:48:00 AM 38.7792 100.6546 302° West  Level Estimated
Tue 12:49:00 AM 38.8327 100.5430 302° West  Level Estimated
Tue 12:50:00 AM 38.8861 100.4313 302° West  Level Estimated
Tue 12:51:00 AM 38.9394 100.3193 302° West  Level Estimated
Tue 12:52:00 AM 38.9926 100.2073 301° West  Level Estimated
Tue 12:53:00 AM 39.0457 100.0950 301° West  Level Estimated
Tue 12:54:00 AM 39.0987 99.9826 301° West  Level Estimated
Tue 12:55:00 AM 39.1516 99.8700 301° West  Level Estimated
Tue 12:56:00 AM 39.2044 99.7573 301° West  Level Estimated
Tue 12:57:00 AM 39.2570 99.6444 301° West  Level Estimated
Tue 12:58:00 AM 39.3096 99.5313 301° West  Level Estimated
Tue 12:59:00 AM 39.3620 99.4180 301° West  Level Estimated
Tue 01:00:00 AM 39.4144 99.3046 301° West  Level Estimated
Tue 01:01:00 AM 39.4666 99.1910 301° West  Level Estimated
Tue 01:02:00 AM 39.5187 99.0772 301° West  Level Estimated
Tue 01:03:00 AM 39.5707 98.9633 301° West  Level Estimated
Tue 01:04:00 AM 39.6226 98.8492 301° West  Level Estimated
Tue 01:05:00 AM 39.6744 98.7349 301° West  Level Estimated
Tue 01:06:00 AM 39.7260 98.6204 300° West  Level Estimated
Tue 01:07:00 AM 39.7776 98.5058 300° West  Level Estimated
Tue 01:08:00 AM 39.8290 98.3910 300° West  Level Estimated
Tue 01:09:00 AM 39.8803 98.2761 300° West  Level Estimated
Tue 01:10:00 AM 39.9315 98.1609 300° West  Level Estimated
Tue 01:11:00 AM 39.9827 98.0456 300° West  Level Estimated
Tue 01:12:00 AM 40.0336 97.9301 300° West  Level Estimated
Tue 01:13:00 AM 40.0845 97.8145 300° West  Level Estimated
Tue 01:14:00 AM 40.1353 97.6986 300° West  Level Estimated
Tue 01:15:00 AM 40.1859 97.5826 300° West  Level Estimated
Tue 01:16:00 AM 40.2364 97.4665 300° West  Level Estimated
Tue 01:17:00 AM 40.2868 97.3501 300° West  Level Estimated
Tue 01:18:00 AM 40.3371 97.2336 300° West  Level Estimated
Tue 01:19:00 AM 40.3873 97.1169 299° West  Level Estimated
Tue 01:20:00 AM 40.4373 97.0000 299° West  Level Estimated
Tue 01:21:00 AM 40.4873 96.8830 299° West  Level Estimated
Tue 01:22:00 AM 40.5371 96.7658 299° West  Level Estimated
Tue 01:23:00 AM 40.5868 96.6484 299° West  Level Estimated
Tue 01:24:00 AM 40.6364 96.5308 299° West  Level Estimated
Tue 01:25:00 AM 40.6858 96.4131 299° West  Level Estimated
Tue 01:26:00 AM 40.7352 96.2952 299° West  Level Estimated
Tue 01:27:00 AM 40.7844 96.1771 299° West  Level Estimated
Tue 01:28:00 AM 40.8335 96.0588 299° West  Level Estimated
Tue 01:29:00 AM 40.8825 95.9404 299° West  Level Estimated
Tue 01:30:00 AM 40.9313 95.8218 299° West  Level Estimated
Tue 01:31:00 AM 40.9801 95.7030 299° West  Level Estimated
Tue 01:32:00 AM 41.0287 95.5840 298° West  Level Estimated
Tue 01:33:00 AM 41.0772 95.4649 298° West  Level Estimated
Tue 01:34:00 AM 41.1255 95.3455 298° West  Level Estimated
Tue 01:35:00 AM 41.1738 95.2261 298° West  Level Estimated
Tue 01:36:00 AM 41.2219 95.1064 298° West  Level Estimated
Tue 01:37:00 AM 41.2699 94.9865 298° West  Level Estimated
Tue 01:38:00 AM 41.3178 94.8665 298° West  Level Estimated
Tue 01:39:00 AM 41.3655 94.7463 298° West  Level Estimated
Tue 01:40:00 AM 41.4132 94.6260 298° West  Level Estimated
Tue 01:41:00 AM 41.4607 94.5054 298° West  Level Estimated
Tue 01:42:00 AM 41.5080 94.3847 298° West  Level Estimated
Tue 01:43:00 AM 41.5553 94.2638 298° West  Level Estimated
Tue 01:44:00 AM 41.6024 94.1427 298° West  Level Estimated
Tue 01:45:00 AM 41.6494 94.0214 297° West  Level Estimated
Tue 01:46:00 AM 41.6963 93.9000 297° West  Level Estimated
Tue 01:47:00 AM 41.7430 93.7784 297° West  Level Estimated
Tue 01:48:00 AM 41.7896 93.6566 297° West  Level Estimated
Tue 01:49:00 AM 41.8361 93.5346 297° West  Level Estimated
Tue 01:50:00 AM 41.8824 93.4125 297° West  Level Estimated
Tue 01:51:00 AM 41.9286 93.2902 297° West  Level Estimated
Tue 01:52:00 AM 41.9747 93.1677 297° West  Level Estimated
Tue 01:53:00 AM 42.0207 93.0450 297° West  Level Estimated
Tue 01:54:00 AM 42.0665 92.9222 297° West  Level Estimated
Tue 01:55:00 AM 42.1122 92.7991 297° West  Level Estimated
Tue 01:56:00 AM 42.1578 92.6759 297° West  Level Estimated
Tue 01:57:00 AM 42.2032 92.5526 296° West  Level Estimated
Tue 01:58:00 AM 42.2485 92.4290 296° West  Level Estimated
Tue 01:59:00 AM 42.2937 92.3053 296° West  Level Estimated
Tue 02:00:00 AM 42.3387 92.1814 296° West  Level Estimated
Tue 02:01:00 AM 42.3836 92.0573 296° West  Level Estimated
Tue 02:02:00 AM 42.4284 91.9330 296° West  Level Estimated
Tue 02:03:00 AM 42.4730 91.8085 296° West  Level Estimated
Tue 02:04:00 AM 42.5175 91.6839 296° West  Level Estimated
Tue 02:05:00 AM 42.5619 91.5591 296° West  Level Estimated
Tue 02:06:00 AM 42.6061 91.4341 296° West  Level Estimated
Tue 02:07:00 AM 42.6502 91.3090 296° West  Level Estimated
Tue 02:08:00 AM 42.6942 91.1837 296° West  Level Estimated
Tue 02:09:00 AM 42.7380 91.0582 295° West  Level Estimated
Tue 02:10:00 AM 42.7817 90.9325 295° West  Level Estimated
Tue 02:11:00 AM 42.8252 90.8066 295° West  Level Estimated
Tue 02:12:00 AM 42.8686 90.6806 295° West  Level Estimated
Tue 02:13:00 AM 42.9119 90.5543 295° West  Level Estimated
Tue 02:14:00 AM 42.9550 90.4279 295° West  Level Estimated
Tue 02:15:00 AM 42.9980 90.3014 295° West  Level Estimated
Tue 02:16:00 AM 43.0409 90.1746 295° West  Level Estimated
Tue 02:17:00 AM 43.0836 90.0477 295° West  Level Estimated
Tue 02:18:00 AM 43.1261 89.9206 295° West  Level Estimated
Tue 02:19:00 AM 43.1686 89.7933 295° West  Level Estimated
Tue 02:20:00 AM 43.2109 89.6659 295° West  Level Estimated
Tue 02:21:00 AM 43.2530 89.5382 294° West  Level Estimated
Tue 02:22:00 AM 43.2950 89.4104 294° West  Level Estimated
Tue 02:23:00 AM 43.3369 89.2824 294° West  Level Estimated
Tue 02:24:00 AM 43.3786 89.1543 294° West  Level Estimated
Tue 02:25:00 AM 43.4202 89.0259 294° West  Level Estimated
Tue 02:26:00 AM 43.4616 88.8974 294° West  Level Estimated
Tue 02:27:00 AM 43.5029 88.7687 294° West  Level Estimated
Tue 02:28:00 AM 43.5440 88.6399 294° West  Level Estimated
Tue 02:29:00 AM 43.5850 88.5108 294° West  Level Estimated
Tue 02:30:00 AM 43.6259 88.3816 294° West  Level Estimated
Tue 02:31:00 AM 43.6666 88.2522 294° West  Level Estimated
Tue 02:32:00 AM 43.7071 88.1226 293° West  Level Estimated
Tue 02:33:00 AM 43.7476 87.9929 293° West  Level Estimated
Tue 02:34:00 AM 43.7878 87.8630 293° West  Level Estimated
Tue 02:35:00 AM 43.8279 87.7329 293° West  Level Estimated
Tue 02:36:00 AM 43.8679 87.6026 293° West  Level Estimated
Tue 02:37:00 AM 43.9071 87.4742 293° West  Level Estimated
Tue 02:38:00 AM 43.9071 87.4742 144° Southeast  Level Estimated
Tue 02:39:00 AM 43.9071 87.4742 144° Southeast  Level Estimated
Tue 02:40:00 AM 43.9071 87.4742 144° Southeast  Level Estimated
Tue 02:41:00 AM 43.9071 87.4742 144° Southeast  Level Estimated
Tue 02:42:00 AM 43.9071 87.4742 144° Southeast  Level Estimated
Tue 02:43:00 AM 43.9071 87.4742 144° Southeast  Level Estimated
Tue 02:44:00 AM 43.9071 87.4742 144° Southeast  Level Estimated
Tue 02:45:00 AM 43.9071 87.4742 144° Southeast  Level Estimated
Tue 02:46:00 AM 43.9071 87.4742 144° Southeast  Level Estimated
Tue 02:47:00 AM 43.9071 87.4742 144° Southeast  Level Estimated
Tue 02:48:00 AM 43.9071 87.4742 144° Southeast  Level Estimated
Tue 02:49:00 AM 43.9071 87.4742 144° Southeast  Level Estimated
Tue 02:50:00 AM 43.9071 87.4742 144° Southeast  Level Estimated
Tue 02:51:00 AM 43.9071 87.4742 144° Southeast  Level Estimated
Tue 02:52:00 AM 43.9071 87.4742 144° Southeast  Level Estimated
Tue 02:53:00 AM 43.9071 87.4742 144° Southeast  Level Estimated

Login

Don't have an account? Register now (free) for customized features, flight alerts, and more!